createdAt,value
2022-11-03T00:01:37.814Z,61.18
2022-11-03T00:04:07.539Z,60.83
2022-11-03T00:06:36.065Z,61.19
2022-11-03T00:09:06.745Z,61.59
2022-11-03T00:11:37.279Z,62.97
2022-11-03T00:14:06.497Z,63.19
2022-11-03T00:16:34.942Z,62.94
2022-11-03T00:19:03.385Z,62.46
2022-11-03T00:21:31.767Z,61.68
2022-11-03T00:24:01.336Z,60.69
2022-11-03T00:26:30.625Z,60.63
2022-11-03T00:29:02.205Z,60.41
2022-11-03T00:31:32.056Z,61.00
2022-11-03T00:34:01.112Z,61.10
2022-11-03T00:36:30.662Z,61.74
2022-11-03T00:38:59.073Z,61.48
2022-11-03T00:41:28.145Z,62.46
2022-11-03T00:43:57.247Z,61.82
2022-11-03T00:46:26.914Z,61.79
2022-11-03T00:48:54.981Z,62.00
2022-11-03T00:51:25.069Z,62.26
2022-11-03T00:53:54.748Z,61.81
2022-11-03T00:56:24.326Z,62.29
2022-11-03T00:58:53.332Z,62.81
2022-11-03T01:01:23.145Z,62.79
2022-11-03T01:04:11.769Z,62.76
2022-11-03T01:06:51.879Z,62.33
2022-11-03T01:09:21.090Z,62.04
2022-11-03T01:11:56.977Z,62.00
2022-11-03T01:14:26.790Z,61.84
2022-11-03T01:16:55.022Z,61.44
2022-11-03T01:19:25.357Z,60.79
2022-11-03T01:21:53.967Z,61.43
2022-11-03T01:24:22.707Z,61.85
2022-11-03T01:26:50.777Z,61.58
2022-11-03T01:29:19.311Z,61.85
2022-11-03T01:31:47.692Z,61.10
2022-11-03T01:34:17.611Z,61.37
2022-11-03T01:36:47.537Z,61.01
2022-11-03T01:39:17.608Z,61.36
2022-11-03T01:41:47.278Z,60.72
2022-11-03T01:44:37.723Z,60.89
2022-11-03T01:47:17.501Z,60.74
2022-11-03T01:49:50.159Z,60.54
2022-11-03T01:52:25.275Z,60.60
2022-11-03T01:54:58.426Z,61.93
2022-11-03T01:57:31.730Z,62.92
2022-11-03T02:00:02.337Z,62.61
2022-11-03T02:02:41.391Z,61.86
2022-11-03T02:05:11.865Z,61.34
2022-11-03T02:07:48.023Z,61.03
2022-11-03T02:10:16.340Z,60.97
2022-11-03T02:12:45.254Z,60.97
2022-11-03T02:15:15.788Z,61.47
2022-11-03T02:17:45.628Z,61.54
2022-11-03T02:20:17.288Z,61.83
2022-11-03T02:23:11.876Z,62.01
2022-11-03T02:25:46.782Z,62.55
2022-11-03T02:28:18.765Z,61.79
2022-11-03T02:30:58.704Z,61.51
2022-11-03T02:33:41.541Z,63.35
2022-11-03T02:36:17.003Z,62.70
2022-11-03T02:38:50.191Z,61.41
2022-11-03T02:41:20.685Z,61.86
2022-11-03T02:43:49.706Z,62.09
2022-11-03T02:46:19.148Z,62.32
2022-11-03T02:48:48.178Z,62.20
2022-11-03T02:51:16.209Z,62.67
2022-11-03T02:53:49.590Z,61.69
2022-11-03T02:56:23.054Z,61.19
2022-11-03T02:58:57.858Z,61.88
2022-11-03T03:01:34.614Z,61.35
2022-11-03T03:04:07.218Z,61.97
2022-11-03T03:06:40.405Z,61.30
2022-11-03T03:09:13.027Z,60.84
2022-11-03T03:11:44.712Z,60.82
2022-11-03T03:14:16.369Z,60.98
2022-11-03T03:16:52.115Z,61.37
2022-11-03T03:19:26.929Z,61.45
2022-11-03T03:21:58.474Z,64.23
2022-11-03T03:24:33.204Z,63.37
2022-11-03T03:27:08.317Z,62.72
2022-11-03T03:29:40.746Z,62.64
2022-11-03T03:32:11.169Z,63.19
2022-11-03T03:34:42.938Z,62.83
2022-11-03T03:37:13.028Z,61.98
2022-11-03T03:39:45.715Z,61.91
2022-11-03T03:42:17.225Z,62.90
2022-11-03T03:44:47.415Z,64.45
2022-11-03T03:47:20.448Z,63.91
2022-11-03T03:49:48.522Z,62.58
2022-11-03T03:52:17.081Z,62.03
2022-11-03T03:54:45.089Z,62.19
2022-11-03T03:57:18.409Z,61.52
2022-11-03T03:59:47.080Z,61.85
2022-11-03T04:02:15.776Z,62.25
2022-11-03T04:04:43.898Z,62.80
2022-11-03T04:07:29.726Z,61.89
2022-11-03T04:09:58.120Z,61.99
2022-11-03T04:12:44.840Z,61.62
2022-11-03T04:15:43.013Z,61.97
2022-11-03T04:18:28.886Z,60.99
2022-11-03T04:21:14.840Z,61.92
2022-11-03T04:23:43.018Z,62.13
2022-11-03T04:26:14.014Z,62.10
2022-11-03T04:28:43.849Z,62.96
2022-11-03T04:31:13.588Z,63.82
2022-11-03T04:33:42.696Z,64.22
2022-11-03T04:36:16.398Z,63.35
2022-11-03T04:38:45.526Z,61.79
2022-11-03T04:41:18.049Z,61.18
2022-11-03T04:43:48.057Z,60.92
2022-11-03T04:46:18.304Z,60.53
2022-11-03T04:48:47.586Z,62.60
2022-11-03T04:51:18.704Z,62.07
2022-11-03T04:53:50.895Z,61.77
2022-11-03T04:56:22.117Z,61.87
2022-11-03T04:58:52.622Z,61.80
2022-11-03T05:01:24.578Z,62.32
2022-11-03T05:03:55.226Z,62.92
2022-11-03T05:06:25.412Z,61.59
2022-11-03T05:08:57.557Z,61.68
2022-11-03T05:11:30.960Z,62.47
2022-11-03T05:14:02.672Z,61.62
2022-11-03T05:16:32.565Z,61.60
2022-11-03T05:19:01.141Z,62.42
2022-11-03T05:21:29.462Z,63.16
2022-11-03T05:24:01.909Z,62.10
2022-11-03T05:26:33.674Z,62.29
2022-11-03T05:29:05.531Z,63.35
2022-11-03T05:31:36.594Z,62.31
2022-11-03T05:34:23.117Z,62.61
2022-11-03T05:36:51.068Z,62.29
2022-11-03T05:39:30.446Z,63.01
2022-11-03T05:42:00.324Z,62.73
2022-11-03T05:44:36.817Z,62.25
2022-11-03T05:47:13.444Z,62.58
2022-11-03T05:49:41.485Z,63.76
2022-11-03T05:52:15.067Z,64.06
2022-11-03T05:54:43.168Z,63.76
2022-11-03T05:57:12.571Z,62.69
2022-11-03T05:59:42.120Z,63.60
2022-11-03T06:02:27.809Z,62.96
2022-11-03T06:04:56.201Z,65.36
2022-11-03T06:07:27.155Z,64.01
2022-11-03T06:09:55.199Z,65.48
2022-11-03T06:12:24.933Z,63.93
2022-11-03T06:14:54.571Z,63.80
2022-11-03T06:17:25.205Z,66.99
2022-11-03T06:19:55.253Z,63.86
2022-11-03T06:22:25.538Z,66.39
2022-11-03T06:24:57.289Z,63.33
2022-11-03T06:27:27.682Z,63.47
2022-11-03T06:30:01.548Z,61.79
2022-11-03T06:32:30.638Z,61.48
2022-11-03T06:35:00.141Z,60.82
2022-11-03T06:37:33.166Z,60.35
2022-11-03T06:40:03.612Z,60.58
2022-11-03T06:42:34.182Z,62.77
2022-11-03T06:45:14.187Z,63.47
2022-11-03T06:47:42.512Z,62.77
2022-11-03T06:50:23.210Z,61.98
2022-11-03T06:52:51.740Z,60.05
2022-11-03T06:55:25.345Z,52.68
2022-11-03T06:57:58.765Z,48.32
2022-11-03T07:00:35.462Z,46.72
2022-11-03T07:03:10.406Z,47.12
2022-11-03T07:05:40.233Z,46.26
2022-11-03T07:08:19.895Z,43.50
2022-11-03T07:10:48.914Z,43.22
2022-11-03T07:13:21.061Z,43.95
2022-11-03T07:15:51.285Z,45.59
2022-11-03T07:18:24.004Z,47.59
2022-11-03T07:20:53.334Z,43.39
2022-11-03T07:23:25.584Z,41.99
2022-11-03T07:25:55.420Z,40.62
2022-11-03T07:28:27.910Z,40.16
2022-11-03T07:30:57.735Z,38.95
2022-11-03T07:33:28.823Z,40.96
2022-11-03T07:36:14.807Z,45.55
2022-11-03T07:38:44.556Z,43.96
2022-11-03T07:41:19.460Z,43.63
2022-11-03T07:43:52.595Z,42.78
2022-11-03T07:46:24.127Z,36.86
2022-11-03T07:48:55.343Z,35.65
2022-11-03T07:51:25.790Z,37.59
2022-11-03T07:53:56.512Z,34.01
2022-11-03T07:56:27.045Z,39.37
2022-11-03T07:58:59.925Z,41.17
2022-11-03T08:01:32.104Z,45.14
2022-11-03T08:04:04.986Z,43.26
2022-11-03T08:06:33.704Z,43.20
2022-11-03T08:09:01.934Z,42.33
2022-11-03T08:11:30.170Z,44.50
2022-11-03T08:13:58.570Z,44.01
2022-11-03T08:16:26.614Z,46.08
2022-11-03T08:18:55.916Z,46.67
2022-11-03T08:21:24.520Z,44.57
2022-11-03T08:23:52.482Z,43.00
2022-11-03T08:26:20.630Z,40.80
2022-11-03T08:28:48.891Z,42.95
2022-11-03T08:31:17.433Z,43.44
2022-11-03T08:33:46.104Z,41.61
2022-11-03T08:36:15.773Z,42.12
2022-11-03T08:38:43.958Z,42.18
2022-11-03T08:41:11.931Z,40.53
2022-11-03T08:43:39.909Z,39.40
2022-11-03T08:46:15.767Z,36.83
2022-11-03T08:48:46.250Z,37.40
2022-11-03T08:51:16.869Z,39.04
2022-11-03T08:53:46.309Z,40.81
2022-11-03T08:56:16.954Z,39.25
2022-11-03T08:58:47.426Z,41.70
2022-11-03T09:01:15.931Z,40.22
2022-11-03T09:03:44.072Z,37.84
2022-11-03T09:06:12.087Z,36.82
2022-11-03T09:11:29.907Z,38.74
2022-11-03T09:13:58.159Z,37.98
2022-11-03T09:16:26.636Z,37.82
2022-11-03T09:18:54.588Z,39.12
2022-11-03T09:21:22.677Z,40.41
2022-11-03T09:23:52.116Z,39.81
2022-11-03T09:26:20.272Z,39.47
2022-11-03T09:28:49.474Z,40.49
2022-11-03T09:31:17.641Z,38.58
2022-11-03T09:33:45.830Z,40.33
2022-11-03T09:36:14.292Z,39.79
2022-11-03T09:38:42.224Z,38.29
2022-11-03T09:41:26.556Z,38.13
2022-11-03T09:43:59.232Z,39.35
2022-11-03T09:46:29.698Z,39.86
2022-11-03T09:48:58.289Z,41.58
2022-11-03T09:51:28.125Z,38.64
2022-11-03T09:53:58.691Z,38.47
2022-11-03T09:56:28.099Z,37.59
2022-11-03T09:58:56.369Z,37.86
2022-11-03T10:01:25.015Z,37.90
2022-11-03T10:03:53.540Z,37.15
2022-11-03T10:06:21.615Z,36.39
2022-11-03T10:08:50.370Z,36.79
2022-11-03T10:11:19.116Z,37.69
2022-11-03T10:13:53.189Z,39.10
2022-11-03T10:16:24.548Z,38.41
2022-11-03T10:18:53.562Z,35.28
2022-11-03T10:21:26.857Z,37.57
2022-11-03T10:23:55.167Z,37.51
2022-11-03T10:26:23.365Z,38.25
2022-11-03T10:29:04.432Z,37.80
2022-11-03T10:31:35.018Z,38.85
2022-11-03T10:34:03.942Z,37.82
2022-11-03T10:36:33.230Z,37.78
2022-11-03T10:39:21.333Z,40.09
2022-11-03T10:41:57.682Z,39.82
2022-11-03T10:44:29.931Z,40.31
2022-11-03T10:46:59.523Z,40.64
2022-11-03T10:49:29.347Z,40.26
2022-11-03T10:52:09.341Z,39.99
2022-11-03T10:54:38.128Z,39.32
2022-11-03T10:57:07.096Z,39.28
2022-11-03T10:59:38.847Z,39.45
2022-11-03T11:02:17.159Z,41.80
2022-11-03T11:04:47.738Z,40.13
2022-11-03T11:07:29.566Z,40.01
2022-11-03T11:09:57.588Z,39.14
2022-11-03T11:12:26.175Z,39.04
2022-11-03T11:14:57.915Z,39.65
2022-11-03T11:17:43.651Z,39.03
2022-11-03T11:20:37.182Z,40.38
2022-11-03T11:23:47.853Z,39.56
2022-11-03T11:26:19.129Z,41.33
2022-11-03T11:29:08.230Z,42.58
2022-11-03T11:31:38.112Z,42.34
2022-11-03T11:34:39.958Z,43.38
2022-11-03T11:37:35.120Z,42.59
2022-11-03T11:40:04.728Z,45.71
2022-11-03T11:42:35.022Z,44.17
2022-11-03T11:45:06.729Z,46.39
2022-11-03T11:47:51.764Z,45.68
2022-11-03T11:50:46.329Z,45.26
2022-11-03T11:53:21.483Z,43.89
2022-11-03T11:55:53.805Z,43.12
2022-11-03T11:58:26.589Z,44.59
2022-11-03T12:00:57.624Z,42.38
2022-11-03T12:03:37.462Z,43.40
2022-11-03T12:06:06.155Z,46.33
2022-11-03T12:08:35.446Z,46.42
2022-11-03T12:11:05.689Z,44.67
2022-11-03T12:13:52.642Z,44.75
2022-11-03T12:16:34.331Z,44.26
2022-11-03T12:19:40.313Z,43.85
2022-11-03T12:22:10.409Z,44.37
2022-11-03T12:24:48.274Z,43.80
2022-11-03T12:27:39.044Z,44.08
2022-11-03T12:30:13.800Z,44.73
2022-11-03T12:32:41.964Z,43.64
2022-11-03T12:35:38.206Z,43.73
2022-11-03T12:38:06.260Z,44.05
2022-11-03T12:40:34.443Z,44.08
2022-11-03T12:43:02.507Z,41.57
2022-11-03T12:45:30.523Z,42.60
2022-11-03T12:47:58.510Z,44.23
2022-11-03T12:50:26.431Z,44.97
2022-11-03T12:52:56.196Z,43.91
2022-11-03T12:55:24.303Z,45.21
2022-11-03T12:57:52.537Z,45.97
2022-11-03T13:00:20.940Z,47.24
2022-11-03T13:02:48.995Z,48.15
2022-11-03T13:05:17.336Z,47.00
2022-11-03T13:07:45.285Z,45.87
2022-11-03T13:10:14.803Z,46.97
2022-11-03T13:12:44.546Z,49.31
2022-11-03T13:15:15.939Z,48.43
2022-11-03T13:18:13.040Z,47.33
2022-11-03T13:20:32.420Z,48.07
2022-11-03T13:23:00.417Z,47.28
2022-11-03T13:25:30.034Z,47.93
2022-11-03T13:27:58.456Z,49.07
2022-11-03T13:30:28.126Z,48.67
2022-11-03T13:32:56.041Z,49.90
2022-11-03T13:35:24.274Z,49.99
2022-11-03T13:37:52.455Z,49.84
2022-11-03T13:40:55.586Z,50.49
2022-11-03T13:43:10.604Z,50.82
2022-11-03T13:45:39.236Z,49.97
2022-11-03T13:49:05.341Z,50.82
2022-11-03T13:50:56.932Z,50.88
2022-11-03T13:56:20.790Z,49.70
2022-11-03T14:05:46.759Z,49.32
2022-11-03T14:08:15.314Z,49.68
2022-11-03T14:10:43.744Z,50.99
2022-11-03T14:13:12.443Z,48.97
2022-11-03T14:15:40.957Z,49.26
2022-11-03T14:18:10.773Z,50.88
2022-11-03T14:20:39.560Z,50.30
2022-11-03T14:23:08.687Z,50.67
2022-11-03T14:25:37.343Z,50.96
2022-11-03T14:28:05.769Z,52.54
2022-11-03T14:30:34.268Z,52.06
2022-11-03T14:33:02.329Z,51.68
2022-11-03T14:35:31.784Z,52.29
2022-11-03T14:37:59.892Z,53.55
2022-11-03T14:40:46.047Z,52.90
2022-11-03T14:43:14.635Z,50.87
2022-11-03T14:45:42.970Z,51.26
2022-11-03T14:48:11.216Z,51.11
2022-11-03T14:50:40.804Z,52.24
2022-11-03T14:53:08.917Z,53.13
2022-11-03T14:55:37.476Z,52.24
2022-11-03T14:58:06.213Z,53.70
2022-11-03T15:00:34.417Z,52.74
2022-11-03T15:03:02.592Z,54.69
2022-11-03T15:05:45.640Z,54.43
2022-11-03T15:08:16.953Z,55.13
2022-11-03T15:10:46.123Z,54.72
2022-11-03T15:13:14.320Z,54.84
2022-11-03T15:15:42.753Z,55.09
2022-11-03T15:18:11.204Z,55.56
2022-11-03T15:20:39.747Z,55.91
2022-11-03T15:25:58.698Z,55.21
2022-11-03T15:28:26.813Z,56.55
2022-11-03T15:30:55.080Z,56.17
2022-11-03T15:33:23.147Z,56.37
2022-11-03T15:35:51.522Z,55.94
2022-11-03T15:38:19.849Z,56.32
2022-11-03T15:40:48.150Z,56.57
2022-11-03T15:43:18.433Z,56.53
2022-11-03T15:45:46.531Z,56.93
2022-11-03T15:48:40.252Z,56.46
2022-11-03T15:51:08.567Z,57.47
2022-11-03T15:53:36.680Z,58.66
2022-11-03T15:56:05.214Z,57.91
2022-11-03T15:58:34.901Z,57.25
2022-11-03T16:01:03.818Z,58.59
2022-11-03T16:03:32.948Z,58.85
2022-11-03T16:06:01.433Z,56.30
2022-11-03T16:08:29.437Z,56.96
2022-11-03T16:10:58.371Z,56.42
2022-11-03T16:13:26.762Z,57.59
2022-11-03T16:15:56.498Z,57.25
2022-11-03T16:18:24.959Z,57.92
2022-11-03T16:20:53.376Z,59.00
2022-11-03T16:23:21.630Z,58.98
2022-11-03T16:25:50.569Z,58.89
2022-11-03T16:28:19.783Z,58.80
2022-11-03T16:30:53.830Z,57.70
2022-11-03T16:33:24.660Z,56.62
2022-11-03T16:35:52.796Z,56.56
2022-11-03T16:38:20.983Z,56.65
2022-11-03T16:40:49.032Z,57.97
2022-11-03T16:43:17.187Z,58.83
2022-11-03T16:45:45.331Z,58.62
2022-11-03T16:48:13.555Z,57.32
2022-11-03T16:50:44.761Z,57.60
2022-11-03T16:53:13.357Z,56.83
2022-11-03T16:55:41.567Z,57.86
2022-11-03T16:58:10.042Z,59.45
2022-11-03T17:00:38.077Z,59.52
2022-11-03T17:03:06.564Z,58.63
2022-11-03T17:05:35.851Z,59.34
2022-11-03T17:08:05.781Z,59.77
2022-11-03T17:10:33.805Z,59.42
2022-11-03T17:13:04.970Z,59.92
2022-11-03T17:15:35.667Z,59.98
2022-11-03T17:18:03.698Z,58.91
2022-11-03T17:20:31.783Z,59.18
2022-11-03T17:22:59.904Z,59.46
2022-11-03T17:25:30.107Z,60.74
2022-11-03T17:28:00.732Z,59.92
2022-11-03T17:30:31.660Z,60.01
2022-11-03T17:33:02.791Z,60.95
2022-11-03T17:35:39.271Z,60.25
2022-11-03T17:38:13.923Z,60.33
2022-11-03T17:40:45.355Z,61.55
2022-11-03T17:43:23.932Z,61.88
2022-11-03T17:45:52.453Z,61.37
2022-11-03T17:48:25.046Z,60.57
2022-11-03T17:50:56.427Z,61.37
2022-11-03T17:53:26.970Z,60.46
2022-11-03T17:56:27.746Z,59.25
2022-11-03T17:58:47.471Z,59.96
2022-11-03T18:01:21.419Z,60.48
2022-11-03T18:03:49.793Z,59.85
2022-11-03T18:06:20.020Z,59.19
2022-11-03T18:08:49.266Z,60.01
2022-11-03T18:11:44.591Z,59.45
2022-11-03T18:14:12.937Z,59.47
2022-11-03T18:16:41.898Z,59.21
2022-11-03T18:19:12.933Z,59.16
2022-11-03T18:21:41.255Z,60.26
2022-11-03T18:24:13.009Z,60.30
2022-11-03T18:26:43.438Z,58.27
2022-11-03T18:29:12.021Z,57.69
2022-11-03T18:31:42.882Z,58.73
2022-11-03T18:34:16.171Z,57.83
2022-11-03T18:36:44.805Z,58.00
2022-11-03T18:39:18.240Z,57.61
2022-11-03T18:41:48.039Z,57.61
2022-11-03T18:44:19.631Z,57.38
2022-11-03T18:46:48.454Z,55.71
2022-11-03T18:49:20.618Z,58.15
2022-11-03T18:51:50.444Z,56.62
2022-11-03T18:54:21.753Z,58.49
2022-11-03T18:56:54.064Z,58.76
2022-11-03T18:59:27.763Z,58.76
2022-11-03T19:01:56.525Z,58.63
2022-11-03T19:04:25.218Z,58.80
2022-11-03T19:06:53.829Z,57.41
2022-11-03T19:09:26.278Z,58.63
2022-11-03T19:11:58.396Z,58.44
2022-11-03T19:14:29.802Z,57.98
2022-11-03T19:17:28.771Z,58.29
2022-11-03T19:19:47.492Z,57.87
2022-11-03T19:22:17.558Z,58.93
2022-11-03T19:24:46.335Z,58.06
2022-11-03T19:27:19.731Z,56.28
2022-11-03T19:29:49.815Z,59.37
2022-11-03T19:32:23.646Z,58.36
2022-11-03T19:34:58.165Z,58.35
2022-11-03T19:37:31.017Z,57.89
2022-11-03T19:40:02.469Z,59.61
2022-11-03T19:42:33.179Z,58.60
2022-11-03T19:45:02.746Z,57.66
2022-11-03T19:47:34.884Z,59.36
2022-11-03T19:50:07.712Z,58.24
2022-11-03T19:52:36.762Z,58.55
2022-11-03T19:55:08.533Z,59.36
2022-11-03T19:57:38.606Z,57.65
2022-11-03T20:00:11.156Z,57.36
2022-11-03T20:02:39.680Z,58.25
2022-11-03T20:05:08.411Z,58.80
2022-11-03T20:07:37.335Z,59.00
2022-11-03T20:10:29.320Z,57.09
2022-11-03T20:13:02.783Z,58.49
2022-11-03T20:15:31.249Z,58.93
2022-11-03T20:17:59.907Z,59.48
2022-11-03T20:20:31.918Z,58.42
2022-11-03T20:23:01.342Z,58.81
2022-11-03T20:25:33.209Z,58.06
2022-11-03T20:28:15.244Z,58.82
2022-11-03T20:30:44.757Z,60.33
2022-11-03T20:33:16.116Z,60.19
2022-11-03T20:35:46.291Z,59.97
2022-11-03T20:38:17.177Z,59.61
2022-11-03T20:40:45.595Z,61.12
2022-11-03T20:43:23.632Z,58.70
2022-11-03T20:45:51.957Z,59.28
2022-11-03T20:48:20.170Z,57.06
2022-11-03T20:50:48.567Z,58.65
2022-11-03T20:53:19.263Z,60.24
2022-11-03T20:55:47.661Z,59.46
2022-11-03T20:58:19.244Z,60.21
2022-11-03T21:00:49.385Z,60.43
2022-11-03T21:03:44.936Z,60.91
2022-11-03T21:06:08.627Z,61.08
2022-11-03T21:08:37.108Z,61.48
2022-11-03T21:11:28.386Z,61.58
2022-11-03T21:14:01.318Z,61.88
2022-11-03T21:16:48.687Z,61.11
2022-11-03T21:19:36.574Z,58.41
2022-11-03T21:22:30.892Z,61.50
2022-11-03T21:25:03.015Z,60.30
2022-11-03T21:27:31.252Z,59.84
2022-11-03T21:30:01.559Z,61.03
2022-11-03T21:32:29.788Z,59.37
2022-11-03T21:35:23.777Z,59.32
2022-11-03T21:37:51.943Z,59.75
2022-11-03T21:40:20.271Z,60.45
2022-11-03T21:43:06.271Z,59.49
2022-11-03T21:45:36.767Z,59.14
2022-11-03T21:48:23.448Z,62.66
2022-11-03T21:50:52.267Z,60.41
2022-11-03T21:53:20.415Z,60.00
2022-11-03T21:55:49.437Z,58.21
2022-11-03T21:58:17.662Z,59.97
2022-11-03T22:00:47.763Z,59.80
2022-11-03T22:03:16.341Z,59.43
2022-11-03T22:05:44.445Z,62.03
2022-11-03T22:08:12.612Z,61.39
2022-11-03T22:10:41.437Z,61.03
2022-11-03T22:13:11.370Z,63.21
2022-11-03T22:15:57.786Z,63.36
2022-11-03T22:18:27.649Z,61.96
2022-11-03T22:21:15.726Z,60.08
2022-11-03T22:24:01.737Z,60.02
2022-11-03T22:26:47.751Z,61.14
2022-11-03T22:29:33.607Z,60.25
2022-11-03T22:32:01.696Z,60.72
2022-11-03T22:35:17.535Z,61.72
2022-11-03T22:37:46.012Z,61.65
2022-11-03T22:40:31.560Z,60.96
2022-11-03T22:43:18.929Z,62.01
2022-11-03T22:45:54.629Z,62.97
2022-11-03T22:48:24.559Z,63.43
2022-11-03T22:51:06.171Z,63.95
2022-11-03T22:56:46.389Z,62.26
2022-11-03T22:59:14.605Z,63.02
2022-11-03T23:01:43.258Z,63.23
2022-11-03T23:04:11.541Z,62.28
2022-11-03T23:06:41.994Z,62.49
2022-11-03T23:09:11.948Z,63.53
2022-11-03T23:11:40.417Z,62.12
2022-11-03T23:14:10.595Z,62.03
2022-11-03T23:16:40.201Z,62.60
2022-11-03T23:19:28.521Z,62.19
2022-11-03T23:21:59.135Z,63.20
2022-11-03T23:24:45.623Z,63.03
2022-11-03T23:27:15.113Z,63.98
2022-11-03T23:29:43.173Z,62.92
2022-11-03T23:32:11.430Z,62.37
2022-11-03T23:35:04.791Z,62.59
2022-11-03T23:37:35.108Z,60.69
2022-11-03T23:40:03.638Z,65.82
2022-11-03T23:43:00.836Z,65.28
2022-11-03T23:45:46.616Z,64.78
2022-11-03T23:48:32.536Z,64.35
2022-11-03T23:51:00.886Z,64.69
2022-11-03T23:53:30.851Z,64.52
2022-11-03T23:56:19.036Z,63.20
2022-11-03T23:58:49.600Z,64.87
